createdAt,value
2022-08-27T00:02:21.337Z,17.18
2022-08-27T00:04:50.127Z,17.16
2022-08-27T00:07:18.916Z,17.10
2022-08-27T00:09:47.634Z,17.01
2022-08-27T00:12:17.827Z,16.91
2022-08-27T00:14:46.617Z,16.91
2022-08-27T00:17:15.850Z,16.91
2022-08-27T00:19:44.719Z,16.92
2022-08-27T00:22:13.639Z,16.88
2022-08-27T00:24:48.636Z,16.93
2022-08-27T00:27:19.547Z,16.93
2022-08-27T00:29:48.026Z,16.90
2022-08-27T00:32:17.516Z,16.89
2022-08-27T00:34:46.148Z,16.89
2022-08-27T00:37:15.013Z,16.94
2022-08-27T00:39:43.438Z,16.92
2022-08-27T00:42:12.374Z,16.92
2022-08-27T00:44:42.030Z,16.94
2022-08-27T00:47:16.209Z,17.02
2022-08-27T00:49:49.128Z,17.09
2022-08-27T00:52:26.040Z,17.15
2022-08-27T00:54:59.850Z,17.18
2022-08-27T00:57:28.696Z,17.30
2022-08-27T00:59:58.501Z,17.54
2022-08-27T01:02:30.638Z,17.76
2022-08-27T01:05:04.248Z,17.82
2022-08-27T01:07:37.106Z,17.96
2022-08-27T01:10:11.819Z,17.97
2022-08-27T01:12:40.797Z,18.01
2022-08-27T01:15:16.923Z,18.01
2022-08-27T01:17:49.910Z,17.94
2022-08-27T01:20:24.236Z,17.93
2022-08-27T01:23:02.910Z,17.90
2022-08-27T01:25:34.010Z,17.77
2022-08-27T01:28:05.907Z,17.77
2022-08-27T01:30:35.054Z,17.78
2022-08-27T01:33:10.942Z,17.76
2022-08-27T01:35:40.425Z,17.69
2022-08-27T01:38:18.989Z,17.69
2022-08-27T01:41:00.491Z,17.77
2022-08-27T01:43:31.151Z,17.86
2022-08-27T01:46:00.681Z,17.91
2022-08-27T01:48:29.074Z,17.97
2022-08-27T01:50:57.630Z,17.95
2022-08-27T01:53:27.611Z,17.94
2022-08-27T01:55:57.250Z,17.95
2022-08-27T01:58:30.512Z,17.99
2022-08-27T02:01:03.565Z,17.96
2022-08-27T02:03:32.616Z,17.94
2022-08-27T02:06:06.075Z,17.92
2022-08-27T02:08:34.877Z,17.96
2022-08-27T02:11:08.162Z,18.04
2022-08-27T02:13:39.229Z,18.04
2022-08-27T02:16:07.690Z,18.03
2022-08-27T02:18:38.502Z,17.98
2022-08-27T02:21:10.447Z,17.89
2022-08-27T02:23:39.721Z,17.90
2022-08-27T02:26:08.213Z,17.84
2022-08-27T02:28:38.347Z,17.86
2022-08-27T02:31:07.469Z,17.80
2022-08-27T02:33:36.027Z,17.74
2022-08-27T02:36:06.118Z,17.68
2022-08-27T02:38:35.224Z,17.58
2022-08-27T02:41:03.543Z,17.58
2022-08-27T02:43:32.595Z,17.62
2022-08-27T02:46:05.807Z,17.56
2022-08-27T02:48:37.460Z,17.59
2022-08-27T02:51:07.050Z,17.69
2022-08-27T02:53:38.508Z,17.63
2022-08-27T02:56:09.578Z,17.60
2022-08-27T02:58:39.079Z,17.64
2022-08-27T03:01:11.216Z,17.72
2022-08-27T03:03:42.272Z,17.76
2022-08-27T03:06:10.542Z,17.76
2022-08-27T03:08:53.343Z,17.77
2022-08-27T03:11:24.051Z,17.83
2022-08-27T03:13:52.943Z,17.87
2022-08-27T03:16:23.210Z,17.82
2022-08-27T03:18:51.570Z,17.80
2022-08-27T03:21:22.413Z,17.78
2022-08-27T03:23:51.051Z,17.73
2022-08-27T03:26:20.989Z,17.68
2022-08-27T03:28:49.303Z,17.70
2022-08-27T03:31:26.862Z,17.67
2022-08-27T03:34:01.656Z,17.67
2022-08-27T03:36:32.041Z,17.68
2022-08-27T03:39:00.503Z,17.62
2022-08-27T03:41:43.814Z,17.47
2022-08-27T03:44:21.803Z,17.32
2022-08-27T03:46:50.956Z,17.25
2022-08-27T03:49:22.947Z,17.31
2022-08-27T03:51:54.118Z,17.37
2022-08-27T03:54:22.812Z,17.44
2022-08-27T03:56:51.438Z,17.57
2022-08-27T03:59:20.212Z,17.66
2022-08-27T04:01:48.925Z,17.71
2022-08-27T04:04:17.333Z,17.66
2022-08-27T04:06:47.357Z,17.61
2022-08-27T04:09:16.046Z,17.45
2022-08-27T04:11:45.559Z,17.40
2022-08-27T04:14:25.390Z,17.37
2022-08-27T04:16:56.370Z,17.34
2022-08-27T04:19:27.959Z,17.49
2022-08-27T04:22:02.599Z,17.57
2022-08-27T04:24:33.645Z,17.56
2022-08-27T04:27:02.840Z,17.58
2022-08-27T04:29:31.832Z,17.43
2022-08-27T04:32:01.234Z,17.34
2022-08-27T04:34:30.102Z,17.35
2022-08-27T04:37:00.942Z,17.46
2022-08-27T04:39:31.310Z,17.49
2022-08-27T04:42:01.783Z,17.56
2022-08-27T04:44:33.714Z,17.62
2022-08-27T04:47:05.858Z,17.52
2022-08-27T04:49:34.940Z,17.45
2022-08-27T04:52:06.142Z,17.53
2022-08-27T04:54:35.981Z,17.46
2022-08-27T04:57:07.174Z,17.47
2022-08-27T04:59:36.860Z,17.50
2022-08-27T05:02:09.424Z,17.48
2022-08-27T05:04:41.059Z,17.51
2022-08-27T05:07:11.982Z,17.49
2022-08-27T05:09:40.209Z,17.52
2022-08-27T05:12:09.398Z,17.52
2022-08-27T05:14:38.386Z,17.52
2022-08-27T05:17:06.821Z,17.53
2022-08-27T05:19:35.158Z,17.55
2022-08-27T05:22:03.431Z,17.55
2022-08-27T05:24:33.391Z,17.57
2022-08-27T05:27:01.645Z,17.59
2022-08-27T05:29:31.618Z,17.44
2022-08-27T05:32:00.065Z,17.45
2022-08-27T05:34:29.876Z,17.42
2022-08-27T05:36:58.805Z,17.49
2022-08-27T05:39:27.046Z,17.63
2022-08-27T05:41:59.355Z,17.74
2022-08-27T05:44:42.975Z,17.79
2022-08-27T05:47:12.112Z,17.70
2022-08-27T05:49:40.427Z,17.76
2022-08-27T05:52:13.511Z,17.88
2022-08-27T05:54:42.219Z,17.94
2022-08-27T05:57:12.433Z,18.10
2022-08-27T05:59:58.190Z,18.21
2022-08-27T06:02:26.790Z,18.32
2022-08-27T06:04:55.567Z,18.44
2022-08-27T06:07:24.036Z,18.60
2022-08-27T06:09:52.290Z,18.63
2022-08-27T06:12:28.306Z,18.60
2022-08-27T06:14:57.586Z,18.74
2022-08-27T06:17:26.277Z,18.83
2022-08-27T06:19:54.627Z,18.79
2022-08-27T06:22:23.033Z,18.94
2022-08-27T06:24:51.555Z,18.83
2022-08-27T06:27:22.172Z,19.15
2022-08-27T06:29:50.397Z,19.63
2022-08-27T06:32:19.438Z,20.15
2022-08-27T06:34:48.675Z,20.58
2022-08-27T06:37:16.968Z,20.96
2022-08-27T06:39:45.822Z,21.49
2022-08-27T06:42:14.885Z,22.03
2022-08-27T06:44:44.537Z,21.67
2022-08-27T06:47:13.070Z,21.08
2022-08-27T06:49:46.188Z,20.89
2022-08-27T06:52:16.662Z,20.55
2022-08-27T06:54:45.809Z,20.45
2022-08-27T06:57:14.436Z,20.96
2022-08-27T06:59:44.557Z,21.10
2022-08-27T07:02:12.962Z,21.18
2022-08-27T07:04:41.314Z,20.23
2022-08-27T07:07:13.713Z,19.73
2022-08-27T07:09:41.973Z,19.82
2022-08-27T07:12:10.336Z,19.65
2022-08-27T07:14:38.983Z,19.67
2022-08-27T07:17:11.336Z,19.56
2022-08-27T07:19:44.670Z,19.69
2022-08-27T07:22:13.949Z,20.14
2022-08-27T07:24:42.439Z,20.61
2022-08-27T07:27:11.506Z,20.96
2022-08-27T07:29:40.138Z,21.19
2022-08-27T07:32:10.129Z,20.99
2022-08-27T07:34:38.406Z,21.27
2022-08-27T07:37:07.021Z,21.37
2022-08-27T07:39:35.455Z,22.11
2022-08-27T07:42:21.114Z,23.08
2022-08-27T07:44:49.953Z,23.93
2022-08-27T07:47:19.930Z,22.96
2022-08-27T07:49:48.686Z,22.88
2022-08-27T07:52:17.546Z,23.11
2022-08-27T07:54:45.947Z,23.35
2022-08-27T07:57:14.673Z,23.48
2022-08-27T07:59:42.915Z,23.61
2022-08-27T08:02:12.818Z,23.71
2022-08-27T08:04:42.468Z,24.57
2022-08-27T08:07:10.778Z,25.28
2022-08-27T08:09:39.608Z,25.96
2022-08-27T08:12:08.324Z,26.67
2022-08-27T08:14:37.544Z,26.58
2022-08-27T08:17:10.344Z,25.94
2022-08-27T08:19:40.362Z,26.48
2022-08-27T08:22:10.439Z,26.82
2022-08-27T08:24:39.027Z,26.47
2022-08-27T08:27:08.046Z,26.59
2022-08-27T08:29:38.023Z,27.10
2022-08-27T08:32:08.468Z,28.33
2022-08-27T08:34:37.472Z,27.65
2022-08-27T08:37:07.373Z,27.20
2022-08-27T08:39:38.480Z,26.64
2022-08-27T08:42:22.204Z,25.63
2022-08-27T08:44:53.942Z,25.57
2022-08-27T08:47:28.414Z,24.84
2022-08-27T08:50:09.220Z,24.89
2022-08-27T08:52:53.271Z,26.13
2022-08-27T08:55:43.741Z,26.83
2022-08-27T08:58:31.260Z,27.07
2022-08-27T09:01:02.070Z,25.69
2022-08-27T09:03:36.362Z,25.02
2022-08-27T09:06:15.519Z,24.26
2022-08-27T09:08:45.586Z,23.81
2022-08-27T09:11:28.896Z,24.05
2022-08-27T09:14:02.947Z,24.19
2022-08-27T09:16:32.434Z,24.27
2022-08-27T09:19:05.991Z,24.73
2022-08-27T09:21:46.416Z,24.29
2022-08-27T09:24:24.740Z,23.79
2022-08-27T09:26:55.321Z,23.19
2022-08-27T09:29:29.980Z,22.98
2022-08-27T09:32:02.206Z,22.61
2022-08-27T09:34:38.636Z,22.44
2022-08-27T09:37:15.682Z,22.18
2022-08-27T09:39:53.785Z,22.10
2022-08-27T09:42:37.447Z,22.11
2022-08-27T09:45:11.913Z,22.08
2022-08-27T09:47:46.664Z,21.90
2022-08-27T09:50:19.892Z,21.70
2022-08-27T09:52:55.308Z,21.45
2022-08-27T09:55:46.190Z,21.23
2022-08-27T09:58:22.881Z,21.16
2022-08-27T10:01:02.435Z,21.14
2022-08-27T10:03:33.419Z,21.06
2022-08-27T10:06:02.453Z,20.87
2022-08-27T10:08:41.908Z,20.41
2022-08-27T10:11:19.500Z,19.58
2022-08-27T10:14:01.312Z,18.62
2022-08-27T10:17:07.734Z,18.34
2022-08-27T10:19:47.494Z,18.17
2022-08-27T10:22:36.193Z,17.95
2022-08-27T10:25:30.016Z,17.80
2022-08-27T10:28:06.796Z,17.69
2022-08-27T10:31:11.530Z,17.65
2022-08-27T10:34:01.476Z,17.91
2022-08-27T10:36:49.192Z,18.08
2022-08-27T10:39:41.396Z,17.96
2022-08-27T10:42:26.294Z,18.15
2022-08-27T10:45:31.066Z,18.18
2022-08-27T10:48:18.176Z,18.24
2022-08-27T10:50:54.592Z,18.20
2022-08-27T10:53:37.472Z,18.25
2022-08-27T10:56:15.530Z,18.35
2022-08-27T10:59:02.893Z,18.48
2022-08-27T11:01:48.619Z,18.54
2022-08-27T11:04:26.152Z,18.59
2022-08-27T11:07:01.325Z,18.44
2022-08-27T11:09:41.205Z,18.43
2022-08-27T11:12:15.357Z,18.26
2022-08-27T11:14:53.482Z,18.32
2022-08-27T11:17:34.758Z,18.54
2022-08-27T11:20:13.155Z,18.57
2022-08-27T11:22:47.196Z,18.64
2022-08-27T11:25:36.795Z,18.76
2022-08-27T11:28:08.610Z,18.84
2022-08-27T11:30:53.406Z,18.91
2022-08-27T11:33:30.212Z,19.16
2022-08-27T11:36:31.626Z,19.50
2022-08-27T11:39:06.056Z,19.47
2022-08-27T11:42:01.539Z,19.58
2022-08-27T11:44:30.825Z,19.62
2022-08-27T11:47:15.168Z,19.67
2022-08-27T11:49:48.722Z,20.01
2022-08-27T11:52:29.253Z,20.05
2022-08-27T11:55:14.549Z,20.00
2022-08-27T11:57:45.100Z,20.09
2022-08-27T12:00:21.400Z,20.20
2022-08-27T12:03:00.422Z,20.12
2022-08-27T12:05:42.697Z,19.93
2022-08-27T12:08:29.342Z,19.90
2022-08-27T12:11:29.162Z,20.19
2022-08-27T12:14:12.350Z,20.18
2022-08-27T12:16:56.118Z,20.28
2022-08-27T12:19:43.662Z,20.33
2022-08-27T12:23:03.745Z,20.06
2022-08-27T12:25:33.824Z,20.29
2022-08-27T12:28:05.383Z,20.00
2022-08-27T12:30:38.243Z,19.91
2022-08-27T12:33:16.213Z,19.53
2022-08-27T12:35:49.372Z,19.55
2022-08-27T12:38:25.021Z,19.31
2022-08-27T12:41:00.256Z,19.40
2022-08-27T12:43:33.655Z,19.68
2022-08-27T12:46:07.921Z,19.92
2022-08-27T12:48:42.604Z,20.01
2022-08-27T12:51:17.244Z,20.30
2022-08-27T12:53:52.535Z,20.36
2022-08-27T12:56:51.055Z,20.78
2022-08-27T13:00:04.288Z,20.70
2022-08-27T13:03:16.383Z,20.64
2022-08-27T13:05:51.623Z,20.88
2022-08-27T13:08:24.347Z,20.88
2022-08-27T13:10:52.647Z,20.78
2022-08-27T13:13:25.613Z,20.88
2022-08-27T13:16:06.368Z,20.88
2022-08-27T13:18:36.707Z,21.01
2022-08-27T13:21:16.651Z,21.14
2022-08-27T13:23:59.328Z,21.17
2022-08-27T13:26:31.502Z,21.46
2022-08-27T13:29:03.679Z,21.50
2022-08-27T13:31:34.328Z,21.56
2022-08-27T13:34:06.984Z,21.76
2022-08-27T13:36:52.489Z,22.37
2022-08-27T13:39:21.234Z,22.87
2022-08-27T13:41:50.228Z,23.61
2022-08-27T13:44:27.733Z,23.63
2022-08-27T13:47:04.314Z,23.64
2022-08-27T13:49:40.229Z,23.83
2022-08-27T13:52:24.675Z,24.61
2022-08-27T13:55:09.400Z,24.53
2022-08-27T13:57:45.928Z,23.77
2022-08-27T14:00:24.451Z,24.06
2022-08-27T14:02:56.176Z,23.96
2022-08-27T14:05:36.825Z,23.54
2022-08-27T14:08:17.272Z,23.43
2022-08-27T14:10:50.504Z,23.14
2022-08-27T14:13:24.913Z,22.51
2022-08-27T14:15:56.981Z,22.17
2022-08-27T14:18:42.502Z,22.03
2022-08-27T14:21:16.996Z,21.96
2022-08-27T14:23:45.798Z,21.91
2022-08-27T14:26:17.347Z,21.78
2022-08-27T14:28:46.323Z,21.77
2022-08-27T14:31:16.659Z,21.93
2022-08-27T14:33:46.449Z,22.04
2022-08-27T14:36:16.094Z,21.99
2022-08-27T14:38:48.005Z,21.78
2022-08-27T14:41:21.457Z,21.91
2022-08-27T14:43:50.314Z,22.06
2022-08-27T14:46:29.836Z,21.67
2022-08-27T14:49:01.867Z,21.48
2022-08-27T14:51:34.227Z,21.48
2022-08-27T14:54:03.076Z,21.66
2022-08-27T14:56:31.775Z,21.78
2022-08-27T14:59:00.362Z,21.82
2022-08-27T15:01:30.620Z,21.76
2022-08-27T15:03:59.577Z,21.49
2022-08-27T15:06:28.159Z,21.22
2022-08-27T15:08:56.434Z,21.19
2022-08-27T15:11:28.541Z,21.15
2022-08-27T15:13:59.561Z,21.13
2022-08-27T15:16:32.485Z,21.15
2022-08-27T15:19:01.570Z,21.18
2022-08-27T15:21:31.737Z,21.20
2022-08-27T15:24:04.197Z,21.36
2022-08-27T15:26:33.224Z,21.49
2022-08-27T15:29:06.189Z,21.68
2022-08-27T15:31:36.671Z,21.79
2022-08-27T15:34:05.107Z,21.73
2022-08-27T15:36:33.463Z,21.67
2022-08-27T15:39:01.884Z,21.66
2022-08-27T15:41:32.327Z,21.57
2022-08-27T15:44:02.464Z,21.46
2022-08-27T15:46:31.464Z,21.40
2022-08-27T15:49:01.288Z,21.30
2022-08-27T15:51:34.369Z,21.27
2022-08-27T15:54:02.880Z,21.30
2022-08-27T15:56:34.480Z,21.31
2022-08-27T15:59:03.155Z,21.19
2022-08-27T16:01:36.581Z,21.09
2022-08-27T16:04:07.925Z,21.17
2022-08-27T16:06:36.947Z,21.22
2022-08-27T16:09:06.807Z,21.25
2022-08-27T16:11:35.424Z,21.26
2022-08-27T16:14:03.993Z,21.24
2022-08-27T16:16:34.044Z,21.30
2022-08-27T16:19:05.688Z,21.27
2022-08-27T16:21:36.710Z,21.28
2022-08-27T16:24:09.397Z,21.25
2022-08-27T16:26:40.124Z,21.28
2022-08-27T16:29:09.065Z,21.34
2022-08-27T16:31:38.794Z,21.34
2022-08-27T16:34:16.234Z,21.39
2022-08-27T16:36:46.970Z,21.34
2022-08-27T16:39:15.217Z,21.28
2022-08-27T16:41:43.564Z,21.24
2022-08-27T16:44:13.428Z,21.19
2022-08-27T16:46:41.870Z,21.17
2022-08-27T16:49:27.986Z,21.24
2022-08-27T16:51:57.704Z,21.36
2022-08-27T16:54:26.492Z,21.48
2022-08-27T16:56:55.032Z,21.60
2022-08-27T16:59:23.687Z,21.81
2022-08-27T17:01:55.409Z,22.04
2022-08-27T17:04:31.238Z,22.01
2022-08-27T17:07:05.617Z,21.77
2022-08-27T17:09:34.917Z,21.59
2022-08-27T17:12:05.667Z,21.42
2022-08-27T17:14:37.967Z,21.17
2022-08-27T17:17:09.497Z,20.91
2022-08-27T17:19:37.940Z,20.65
2022-08-27T17:22:09.509Z,20.44
2022-08-27T17:24:38.476Z,20.23
2022-08-27T17:27:07.139Z,19.99
2022-08-27T17:29:36.756Z,19.95
2022-08-27T17:32:07.926Z,19.93
2022-08-27T17:34:37.104Z,19.88
2022-08-27T17:37:06.889Z,19.82
2022-08-27T17:39:35.266Z,19.82
2022-08-27T17:42:03.615Z,19.72
2022-08-27T17:44:35.965Z,19.64
2022-08-27T17:47:08.190Z,19.57
2022-08-27T17:49:37.034Z,19.64
2022-08-27T17:52:10.712Z,19.58
2022-08-27T17:54:42.253Z,19.62
2022-08-27T17:57:18.010Z,19.52
2022-08-27T17:59:47.489Z,19.45
2022-08-27T18:02:21.659Z,19.37
2022-08-27T18:04:50.652Z,19.34
2022-08-27T18:07:20.832Z,19.32
2022-08-27T18:09:50.417Z,19.32
2022-08-27T18:12:23.819Z,19.38
2022-08-27T18:15:03.867Z,19.48
2022-08-27T18:17:32.346Z,19.54
2022-08-27T18:20:01.241Z,19.55
2022-08-27T18:22:32.391Z,19.47
2022-08-27T18:25:08.693Z,19.40
2022-08-27T18:27:41.102Z,19.37
2022-08-27T18:30:12.273Z,19.32
2022-08-27T18:32:41.572Z,19.33
2022-08-27T18:35:17.100Z,19.49
2022-08-27T18:37:47.138Z,19.64
2022-08-27T18:40:19.459Z,19.72
2022-08-27T18:42:49.198Z,19.77
2022-08-27T18:45:23.133Z,19.74
2022-08-27T18:47:52.653Z,19.66
2022-08-27T18:50:21.541Z,19.71
2022-08-27T18:52:54.537Z,19.76
2022-08-27T18:55:28.002Z,19.70
2022-08-27T18:57:56.642Z,19.33
2022-08-27T19:00:25.254Z,18.93
2022-08-27T19:02:54.308Z,18.62
2022-08-27T19:05:27.424Z,18.45
2022-08-27T19:07:59.156Z,18.34
2022-08-27T19:10:28.164Z,18.25
2022-08-27T19:12:56.468Z,18.14
2022-08-27T19:15:24.794Z,18.09
2022-08-27T19:17:57.902Z,18.05
2022-08-27T19:20:27.482Z,18.00
2022-08-27T19:22:58.835Z,18.01
2022-08-27T19:25:29.568Z,17.97
2022-08-27T19:27:58.285Z,17.97
2022-08-27T19:30:26.665Z,17.97
2022-08-27T19:32:57.760Z,17.95
2022-08-27T19:35:26.613Z,17.96
2022-08-27T19:37:56.564Z,17.95
2022-08-27T19:40:26.061Z,17.94
2022-08-27T19:42:55.080Z,17.94
2022-08-27T19:45:24.371Z,17.89
2022-08-27T19:47:54.069Z,17.80
2022-08-27T19:50:24.449Z,17.77
2022-08-27T19:52:53.621Z,17.70
2022-08-27T19:55:23.453Z,17.71
2022-08-27T19:57:52.045Z,17.74
2022-08-27T20:00:24.985Z,17.71
2022-08-27T20:02:57.240Z,17.87
2022-08-27T20:05:25.604Z,17.89
2022-08-27T20:07:54.657Z,17.95
2022-08-27T20:10:36.072Z,17.94
2022-08-27T20:13:06.053Z,17.94
2022-08-27T20:15:35.541Z,17.81
2022-08-27T20:18:05.338Z,17.78
2022-08-27T20:20:35.008Z,17.85
2022-08-27T20:23:05.113Z,17.89
2022-08-27T20:25:37.215Z,17.86
2022-08-27T20:28:37.362Z,17.83
2022-08-27T20:30:57.434Z,17.89
2022-08-27T20:33:27.028Z,17.89
2022-08-27T20:35:56.809Z,17.92
2022-08-27T20:38:25.428Z,17.86
2022-08-27T20:40:55.278Z,17.81
2022-08-27T20:43:23.650Z,17.80
2022-08-27T20:45:52.092Z,17.81
2022-08-27T20:48:20.569Z,17.84
2022-08-27T20:50:49.091Z,17.81
2022-08-27T20:53:17.999Z,17.86
2022-08-27T20:55:46.514Z,17.97
2022-08-27T20:58:42.015Z,17.87
2022-08-27T21:01:11.348Z,17.93
2022-08-27T21:03:39.905Z,17.89
2022-08-27T21:06:08.986Z,17.86
2022-08-27T21:08:39.536Z,17.91
2022-08-27T21:11:12.880Z,17.88
2022-08-27T21:13:55.745Z,17.75
2022-08-27T21:16:25.578Z,17.69
2022-08-27T21:18:55.678Z,17.64
2022-08-27T21:21:24.702Z,17.63
2022-08-27T21:23:53.319Z,17.62
2022-08-27T21:26:23.047Z,17.63
2022-08-27T21:28:55.998Z,17.64
2022-08-27T21:31:25.558Z,17.58
2022-08-27T21:33:54.563Z,17.57
2022-08-27T21:36:23.654Z,17.74
2022-08-27T21:38:52.079Z,17.71
2022-08-27T21:41:20.685Z,17.64
2022-08-27T21:43:49.141Z,17.70
2022-08-27T21:46:20.541Z,17.62
2022-08-27T21:48:58.545Z,17.54
2022-08-27T21:51:27.942Z,17.50
2022-08-27T21:53:56.321Z,17.59
2022-08-27T21:56:24.656Z,17.50
2022-08-27T21:58:53.144Z,17.55
2022-08-27T22:01:23.096Z,17.53
2022-08-27T22:03:51.684Z,17.60
2022-08-27T22:06:20.604Z,17.62
2022-08-27T22:08:49.129Z,17.58
2022-08-27T22:11:21.961Z,17.55
2022-08-27T22:13:52.334Z,17.55
2022-08-27T22:16:22.139Z,17.58
2022-08-27T22:18:54.689Z,17.69
2022-08-27T22:21:23.918Z,17.62
2022-08-27T22:23:52.504Z,17.63
2022-08-27T22:26:22.085Z,17.59
2022-08-27T22:28:50.390Z,17.63
2022-08-27T22:31:19.539Z,17.69
2022-08-27T22:33:49.413Z,17.66
2022-08-27T22:36:17.849Z,17.69
2022-08-27T22:38:47.696Z,17.72
2022-08-27T22:41:18.229Z,17.76
2022-08-27T22:43:47.321Z,17.76
2022-08-27T22:46:15.880Z,17.74
2022-08-27T22:48:44.220Z,17.68
2022-08-27T22:51:13.940Z,17.74
2022-08-27T22:53:42.495Z,17.73
2022-08-27T22:56:10.816Z,17.70
2022-08-27T22:58:40.650Z,17.72
2022-08-27T23:01:14.767Z,17.62
2022-08-27T23:03:43.116Z,17.61
2022-08-27T23:06:12.886Z,17.63
2022-08-27T23:08:41.735Z,17.58
2022-08-27T23:11:10.077Z,17.62
2022-08-27T23:13:38.753Z,17.58
2022-08-27T23:16:09.113Z,17.69
2022-08-27T23:18:39.306Z,17.63
2022-08-27T23:21:08.061Z,17.62
2022-08-27T23:23:39.556Z,17.64
2022-08-27T23:26:25.687Z,17.66
2022-08-27T23:28:54.933Z,17.72
2022-08-27T23:31:23.675Z,17.70
2022-08-27T23:33:54.278Z,17.69
2022-08-27T23:36:23.248Z,17.64
2022-08-27T23:38:53.055Z,17.69
2022-08-27T23:41:21.676Z,17.67
2022-08-27T23:43:49.978Z,17.68
2022-08-27T23:46:18.361Z,17.72
2022-08-27T23:48:46.675Z,17.71
2022-08-27T23:51:15.007Z,17.69
2022-08-27T23:53:43.510Z,17.63
2022-08-27T23:56:13.373Z,17.65
2022-08-27T23:58:41.977Z,17.59
